createdAt,value
2018-12-26T00:02:16.042Z,77.43
2018-12-26T00:05:21.616Z,58.77
2018-12-26T00:08:26.937Z,73.10
2018-12-26T00:11:32.380Z,56.47
2018-12-26T00:14:37.725Z,65.00
2018-12-26T00:17:43.279Z,50.83
2018-12-26T00:20:48.555Z,48.87
2018-12-26T00:23:54.173Z,25.57
2018-12-26T00:26:59.517Z,63.40
2018-12-26T00:30:05.369Z,46.13
2018-12-26T00:33:10.644Z,44.43
2018-12-26T00:36:16.055Z,42.83
2018-12-26T00:39:21.331Z,51.03
2018-12-26T00:42:26.744Z,49.00
2018-12-26T00:45:32.019Z,47.93
2018-12-26T00:48:37.396Z,50.77
2018-12-26T00:51:42.669Z,46.80
2018-12-26T00:54:48.124Z,32.80
2018-12-26T00:57:53.408Z,42.83
2018-12-26T01:00:58.814Z,51.10
2018-12-26T01:04:04.095Z,31.03
2018-12-26T01:07:09.613Z,36.63
2018-12-26T01:10:14.885Z,33.33
2018-12-26T01:13:20.300Z,32.97
2018-12-26T01:16:25.578Z,36.23
2018-12-26T01:19:31.292Z,35.97
2018-12-26T01:22:36.564Z,17.53
2018-12-26T01:25:42.003Z,20.83
2018-12-26T01:28:47.271Z,32.03
2018-12-26T01:31:52.670Z,20.87
2018-12-26T01:34:57.996Z,42.07
2018-12-26T01:38:03.460Z,28.47
2018-12-26T01:41:08.744Z,21.93
2018-12-26T01:44:14.357Z,31.90
2018-12-26T01:47:19.632Z,17.30
2018-12-26T01:50:25.046Z,26.37
2018-12-26T01:53:30.318Z,19.10
2018-12-26T01:56:35.739Z,21.67
2018-12-26T01:59:41.007Z,23.17
2018-12-26T02:02:46.522Z,16.70
2018-12-26T02:05:52.152Z,16.97
2018-12-26T02:08:57.523Z,20.43
2018-12-26T02:12:02.820Z,20.40
2018-12-26T02:15:08.620Z,21.70
2018-12-26T02:18:13.899Z,19.07
2018-12-26T02:21:19.596Z,23.67
2018-12-26T02:24:24.871Z,32.57
2018-12-26T02:27:30.309Z,30.63
2018-12-26T02:30:35.732Z,30.50
2018-12-26T02:33:41.206Z,22.63
2018-12-26T02:36:46.484Z,27.13
2018-12-26T02:39:51.903Z,35.80
2018-12-26T02:42:57.173Z,29.33
2018-12-26T02:46:02.679Z,25.87
2018-12-26T02:49:07.965Z,35.07
2018-12-26T02:52:13.481Z,31.40
2018-12-26T02:55:18.815Z,26.03
2018-12-26T02:58:24.268Z,18.70
2018-12-26T03:01:29.545Z,26.17
2018-12-26T03:04:34.968Z,31.07
2018-12-26T03:07:40.239Z,19.43
2018-12-26T03:10:45.656Z,23.50
2018-12-26T03:13:51.065Z,30.27
2018-12-26T03:16:56.540Z,12.70
2018-12-26T03:20:01.814Z,22.40
2018-12-26T03:23:07.538Z,30.33
2018-12-26T03:26:12.812Z,25.60
2018-12-26T03:29:18.229Z,16.80
2018-12-26T03:32:23.504Z,20.63
2018-12-26T03:35:28.911Z,21.73
2018-12-26T03:38:34.595Z,19.57
2018-12-26T03:41:40.117Z,29.83
2018-12-26T03:44:46.698Z,22.23
2018-12-26T03:47:52.497Z,30.10
2018-12-26T03:50:58.053Z,23.90
2018-12-26T03:54:03.743Z,26.90
2018-12-26T03:57:09.263Z,24.47
2018-12-26T04:00:14.642Z,13.97
2018-12-26T04:03:19.913Z,25.20
2018-12-26T04:06:25.266Z,14.00
2018-12-26T04:09:30.609Z,12.37
2018-12-26T04:12:36.380Z,15.97
2018-12-26T04:15:41.639Z,7.67
2018-12-26T04:18:47.327Z,23.40
2018-12-26T04:21:53.156Z,11.77
2018-12-26T04:24:58.707Z,20.73
2018-12-26T04:28:03.994Z,11.97
2018-12-26T04:31:09.417Z,10.50
2018-12-26T04:34:14.693Z,19.10
2018-12-26T04:37:20.112Z,17.33
2018-12-26T04:40:25.499Z,13.03
2018-12-26T04:43:31.101Z,16.60
2018-12-26T04:46:36.374Z,12.10
2018-12-26T04:49:41.902Z,16.00
2018-12-26T04:52:47.340Z,7.67
2018-12-26T04:55:52.793Z,16.73
2018-12-26T04:58:58.071Z,14.17
2018-12-26T05:02:03.426Z,17.30
2018-12-26T05:05:08.699Z,16.67
2018-12-26T05:08:14.170Z,23.20
2018-12-26T05:11:19.444Z,20.80
2018-12-26T05:14:24.795Z,14.07
2018-12-26T05:17:30.134Z,19.57
2018-12-26T05:20:35.578Z,17.37
2018-12-26T05:23:40.852Z,15.17
2018-12-26T05:26:46.444Z,11.17
2018-12-26T05:29:51.784Z,21.70
2018-12-26T05:32:57.237Z,19.30
2018-12-26T05:36:02.587Z,20.30
2018-12-26T05:39:08.842Z,13.27
2018-12-26T05:42:14.131Z,17.60
2018-12-26T05:45:19.526Z,25.13
2018-12-26T05:48:24.798Z,30.37
2018-12-26T05:51:30.224Z,34.57
2018-12-26T05:54:35.507Z,30.83
2018-12-26T05:57:42.990Z,34.47
2018-12-26T06:00:47.897Z,14.73
2018-12-26T06:03:53.341Z,17.23
2018-12-26T06:06:58.620Z,19.50
2018-12-26T06:10:04.133Z,25.43
2018-12-26T06:13:09.411Z,17.27
2018-12-26T06:16:14.923Z,24.43
2018-12-26T06:19:20.197Z,18.87
2018-12-26T06:22:25.831Z,17.93
2018-12-26T06:25:31.105Z,24.43
2018-12-26T06:28:36.525Z,24.70
2018-12-26T06:31:41.805Z,25.17
2018-12-26T06:34:47.200Z,24.00
2018-12-26T06:37:52.479Z,26.20
2018-12-26T06:40:57.888Z,29.57
2018-12-26T06:44:03.167Z,14.50
2018-12-26T06:47:08.576Z,23.27
2018-12-26T06:50:13.848Z,26.77
2018-12-26T06:53:19.265Z,32.03
2018-12-26T06:56:24.540Z,30.50
2018-12-26T06:59:29.953Z,37.10
2018-12-26T07:02:35.237Z,20.17
2018-12-26T07:05:40.643Z,20.57
2018-12-26T07:08:46.007Z,23.40
2018-12-26T07:11:51.436Z,29.53
2018-12-26T07:14:56.714Z,28.93
2018-12-26T07:18:02.124Z,24.83
2018-12-26T07:21:07.406Z,31.90
2018-12-26T07:24:12.938Z,33.70
2018-12-26T07:27:18.237Z,19.83
2018-12-26T07:30:23.713Z,26.53
2018-12-26T07:33:28.983Z,24.33
2018-12-26T07:36:34.398Z,25.87
2018-12-26T07:39:39.745Z,25.10
2018-12-26T07:42:45.432Z,25.93
2018-12-26T07:45:50.823Z,21.20
2018-12-26T07:48:56.393Z,27.63
2018-12-26T07:52:01.671Z,32.17
2018-12-26T07:55:07.448Z,31.90
2018-12-26T07:58:17.518Z,25.83
2018-12-26T08:01:19.921Z,35.60
2018-12-26T08:04:25.386Z,22.80
2018-12-26T08:07:30.867Z,17.83
2018-12-26T08:10:40.188Z,35.10
2018-12-26T08:13:45.715Z,29.73
2018-12-26T08:16:53.431Z,28.07
2018-12-26T08:19:58.847Z,29.00
2018-12-26T08:23:04.120Z,15.17
2018-12-26T08:26:09.477Z,32.33
2018-12-26T08:29:14.753Z,34.50
2018-12-26T08:32:20.424Z,37.03
2018-12-26T08:35:25.703Z,39.40
2018-12-26T08:38:31.121Z,21.60
2018-12-26T08:41:36.446Z,31.43
2018-12-26T08:44:41.892Z,27.93
2018-12-26T08:47:47.171Z,26.37
2018-12-26T08:50:52.625Z,24.00
2018-12-26T08:53:57.902Z,29.93
2018-12-26T08:57:03.256Z,32.00
2018-12-26T09:00:10.032Z,31.53
2018-12-26T09:03:15.532Z,32.63
2018-12-26T09:06:20.904Z,29.53
2018-12-26T09:09:26.312Z,30.20
2018-12-26T09:12:31.652Z,25.13
2018-12-26T09:15:37.280Z,34.33
2018-12-26T09:18:42.557Z,29.33
2018-12-26T09:21:48.104Z,30.30
2018-12-26T09:24:53.436Z,77.70
2018-12-26T09:27:59.108Z,31.23
2018-12-26T09:31:04.436Z,34.90
2018-12-26T09:34:09.990Z,38.57
2018-12-26T09:37:15.522Z,99.63
2018-12-26T09:40:20.991Z,56.97
2018-12-26T09:43:26.257Z,76.97
2018-12-26T09:46:31.671Z,46.33
2018-12-26T09:49:36.995Z,44.27
2018-12-26T09:52:42.463Z,55.97
2018-12-26T09:55:47.747Z,54.07
2018-12-26T09:58:53.153Z,46.37
2018-12-26T10:01:58.439Z,50.07
2018-12-26T10:05:04.268Z,40.70
2018-12-26T10:08:09.545Z,42.90
2018-12-26T10:11:14.941Z,48.47
2018-12-26T10:14:20.223Z,39.40
2018-12-26T10:17:25.928Z,30.53
2018-12-26T10:20:31.163Z,50.33
2018-12-26T10:23:36.624Z,55.93
2018-12-26T10:26:41.908Z,39.30
2018-12-26T10:29:47.316Z,36.53
2018-12-26T10:32:52.593Z,44.97
2018-12-26T10:35:58.109Z,53.50
2018-12-26T10:39:04.556Z,41.57
2018-12-26T10:42:10.031Z,37.93
2018-12-26T10:45:15.370Z,66.53
2018-12-26T10:48:20.816Z,45.27
2018-12-26T10:51:26.098Z,57.40
2018-12-26T10:54:31.639Z,62.87
2018-12-26T10:57:36.985Z,49.83
2018-12-26T11:00:42.400Z,43.57
2018-12-26T11:03:47.675Z,63.10
2018-12-26T11:06:53.088Z,44.93
2018-12-26T11:09:58.365Z,40.20
2018-12-26T11:13:03.777Z,63.13
2018-12-26T11:16:09.124Z,50.63
2018-12-26T11:19:14.573Z,61.20
2018-12-26T11:22:19.854Z,47.53
2018-12-26T11:25:25.259Z,50.00
2018-12-26T11:28:30.605Z,51.90
2018-12-26T11:31:36.052Z,42.83
2018-12-26T11:34:41.329Z,59.13
2018-12-26T11:37:47.140Z,52.00
2018-12-26T11:40:52.478Z,54.93
2018-12-26T11:43:57.945Z,44.97
2018-12-26T11:47:03.231Z,69.33
2018-12-26T11:50:09.293Z,62.67
2018-12-26T11:53:15.034Z,49.27
2018-12-26T11:56:20.498Z,62.03
2018-12-26T11:59:27.375Z,60.63
2018-12-26T12:02:33.388Z,47.10
2018-12-26T12:05:38.822Z,60.30
2018-12-26T12:08:44.184Z,45.83
2018-12-26T12:11:49.531Z,54.03
2018-12-26T12:14:55.295Z,55.23
2018-12-26T12:18:00.567Z,54.53
2018-12-26T12:21:06.062Z,52.60
2018-12-26T12:24:11.440Z,60.37
2018-12-26T12:27:16.864Z,53.07
2018-12-26T12:30:22.149Z,53.17
2018-12-26T12:33:27.650Z,57.37
2018-12-26T12:36:33.184Z,42.30
2018-12-26T12:39:38.876Z,52.00
2018-12-26T12:42:44.858Z,52.90
2018-12-26T12:45:50.371Z,62.30
2018-12-26T12:48:55.904Z,59.13
2018-12-26T12:52:01.717Z,47.13
2018-12-26T12:55:07.133Z,53.03
2018-12-26T12:58:12.733Z,52.03
2018-12-26T13:01:18.024Z,58.10
2018-12-26T13:04:23.684Z,57.43
2018-12-26T13:07:28.979Z,60.70
2018-12-26T13:10:37.240Z,50.30
2018-12-26T13:13:42.546Z,59.57
2018-12-26T13:16:48.030Z,52.33
2018-12-26T13:19:53.300Z,49.60
2018-12-26T13:22:58.862Z,47.07
2018-12-26T13:26:04.137Z,57.50
2018-12-26T13:29:09.703Z,57.77
2018-12-26T13:32:15.642Z,61.73
2018-12-26T13:35:21.021Z,68.23
2018-12-26T13:38:26.309Z,70.80
2018-12-26T13:41:31.792Z,73.17
2018-12-26T13:44:37.085Z,73.43
2018-12-26T13:47:42.485Z,69.80
2018-12-26T13:50:47.766Z,70.37
2018-12-26T13:53:54.102Z,69.03
2018-12-26T13:56:59.375Z,77.83
2018-12-26T14:00:07.556Z,69.07
2018-12-26T14:03:13.151Z,66.27
2018-12-26T14:06:18.554Z,63.17
2018-12-26T14:09:23.828Z,64.47
2018-12-26T14:12:29.253Z,76.87
2018-12-26T14:15:34.541Z,61.43
2018-12-26T14:18:39.936Z,63.90
2018-12-26T14:21:45.552Z,73.63
2018-12-26T14:24:54.393Z,53.30
2018-12-26T14:27:58.200Z,68.77
2018-12-26T14:31:03.567Z,60.10
2018-12-26T14:34:08.849Z,109.63
2018-12-26T14:37:14.256Z,83.33
2018-12-26T14:40:19.537Z,121.87
2018-12-26T14:43:25.239Z,97.57
2018-12-26T14:46:30.534Z,116.50
2018-12-26T14:49:35.901Z,137.23
2018-12-26T14:52:41.256Z,102.37
2018-12-26T14:55:46.616Z,91.80
2018-12-26T14:58:51.895Z,104.90
2018-12-26T15:01:57.311Z,96.77
2018-12-26T15:05:02.591Z,111.03
2018-12-26T15:08:07.999Z,76.27
2018-12-26T15:11:16.522Z,73.27
2018-12-26T15:14:21.880Z,80.63
2018-12-26T15:17:27.160Z,61.03
2018-12-26T15:20:32.563Z,59.47
2018-12-26T15:23:37.836Z,80.40
2018-12-26T15:26:43.411Z,88.87
2018-12-26T15:29:48.726Z,72.50
2018-12-26T15:32:54.132Z,82.33
2018-12-26T15:35:59.414Z,83.33
2018-12-26T15:39:08.101Z,61.60
2018-12-26T15:42:13.376Z,73.60
2018-12-26T15:45:18.892Z,77.03
2018-12-26T15:48:24.168Z,59.87
2018-12-26T15:51:29.586Z,81.80
2018-12-26T15:54:34.863Z,73.00
2018-12-26T15:57:40.576Z,78.27
2018-12-26T16:00:45.857Z,67.30
2018-12-26T16:03:51.278Z,76.33
2018-12-26T16:06:56.563Z,75.43
2018-12-26T16:10:01.921Z,69.33
2018-12-26T16:13:07.198Z,71.67
2018-12-26T16:16:12.559Z,86.40
2018-12-26T16:19:17.841Z,69.03
2018-12-26T16:22:23.232Z,86.93
2018-12-26T16:25:28.518Z,68.10
2018-12-26T16:28:33.921Z,66.73
2018-12-26T16:31:39.196Z,64.50
2018-12-26T16:34:44.928Z,56.33
2018-12-26T16:37:50.245Z,59.13
2018-12-26T16:40:55.711Z,61.03
2018-12-26T16:44:02.244Z,70.17
2018-12-26T16:47:07.831Z,62.70
2018-12-26T16:50:13.110Z,70.40
2018-12-26T16:53:18.523Z,54.93
2018-12-26T16:56:23.804Z,52.17
2018-12-26T16:59:29.172Z,70.03
2018-12-26T17:02:34.444Z,65.00
2018-12-26T17:05:39.901Z,65.23
2018-12-26T17:08:45.181Z,54.60
2018-12-26T17:11:50.549Z,61.43
2018-12-26T17:14:55.825Z,57.93
2018-12-26T17:18:01.286Z,60.97
2018-12-26T17:21:06.565Z,58.97
2018-12-26T17:24:16.555Z,47.10
2018-12-26T17:27:19.310Z,69.27
2018-12-26T17:30:25.015Z,60.73
2018-12-26T17:33:30.299Z,68.60
2018-12-26T17:36:35.802Z,77.17
2018-12-26T17:39:41.816Z,72.03
2018-12-26T17:42:47.326Z,65.53
2018-12-26T17:45:52.615Z,65.00
2018-12-26T17:48:58.298Z,78.83
2018-12-26T17:52:03.591Z,73.13
2018-12-26T17:55:18.934Z,78.83
2018-12-26T17:58:28.060Z,72.70
2018-12-26T18:01:53.069Z,58.67
2018-12-26T18:04:58.346Z,70.27
2018-12-26T18:08:05.559Z,88.00
2018-12-26T18:11:10.829Z,71.60
2018-12-26T18:14:16.291Z,69.80
2018-12-26T18:17:21.573Z,65.67
2018-12-26T18:20:26.985Z,67.47
2018-12-26T18:23:32.269Z,83.23
2018-12-26T18:26:37.681Z,61.23
2018-12-26T18:29:42.961Z,70.70
2018-12-26T18:32:48.361Z,63.70
2018-12-26T18:35:53.640Z,71.03
2018-12-26T18:38:59.058Z,66.87
2018-12-26T18:42:04.401Z,62.00
2018-12-26T18:45:10.014Z,62.37
2018-12-26T18:48:15.364Z,56.60
2018-12-26T18:51:20.849Z,75.60
2018-12-26T18:54:26.121Z,66.70
2018-12-26T18:57:31.529Z,70.70
2018-12-26T19:00:37.004Z,60.83
2018-12-26T19:03:42.599Z,65.10
2018-12-26T19:06:47.864Z,63.10
2018-12-26T19:09:53.326Z,73.47
2018-12-26T19:12:58.603Z,83.80
2018-12-26T19:16:04.014Z,78.90
2018-12-26T19:19:09.289Z,76.50
2018-12-26T19:22:14.691Z,68.97
2018-12-26T19:25:19.978Z,70.23
2018-12-26T19:28:25.334Z,55.53
2018-12-26T19:31:39.237Z,62.13
2018-12-26T19:34:37.713Z,56.80
2018-12-26T19:37:43.225Z,64.57
2018-12-26T19:40:48.613Z,45.70
2018-12-26T19:43:55.704Z,48.70
2018-12-26T19:47:01.188Z,65.17
2018-12-26T19:50:09.557Z,65.33
2018-12-26T19:53:15.134Z,58.33
2018-12-26T19:56:20.410Z,49.07
2018-12-26T19:59:25.801Z,62.10
2018-12-26T20:02:31.143Z,63.50
2018-12-26T20:05:36.585Z,62.23
2018-12-26T20:08:41.868Z,71.57
2018-12-26T20:11:47.283Z,45.67
2018-12-26T20:14:52.558Z,55.87
2018-12-26T20:17:57.964Z,67.70
2018-12-26T20:21:03.247Z,65.73
2018-12-26T20:24:08.661Z,60.17
2018-12-26T20:27:13.938Z,59.73
2018-12-26T20:30:19.293Z,62.87
2018-12-26T20:33:24.574Z,73.73
2018-12-26T20:36:29.941Z,70.47
2018-12-26T20:39:35.219Z,55.03
2018-12-26T20:42:40.629Z,71.53
2018-12-26T20:45:45.902Z,79.67
2018-12-26T20:48:51.408Z,62.70
2018-12-26T20:51:56.686Z,79.67
2018-12-26T20:55:02.116Z,82.00
2018-12-26T20:58:07.386Z,89.53
2018-12-26T21:01:12.791Z,97.67
2018-12-26T21:04:18.066Z,80.20
2018-12-26T21:07:23.449Z,85.87
2018-12-26T21:10:28.728Z,74.53
2018-12-26T21:13:34.274Z,75.77
2018-12-26T21:16:39.869Z,92.50
2018-12-26T21:19:46.804Z,69.77
2018-12-26T21:22:52.076Z,80.13
2018-12-26T21:25:57.433Z,75.37
2018-12-26T21:29:02.794Z,82.33
2018-12-26T21:32:14.275Z,78.63
2018-12-26T21:35:15.152Z,79.60
2018-12-26T21:38:20.627Z,92.10
2018-12-26T21:41:25.892Z,69.80
2018-12-26T21:44:31.296Z,84.43
2018-12-26T21:47:36.641Z,82.57
2018-12-26T21:50:42.099Z,87.27
2018-12-26T21:53:47.373Z,79.07
2018-12-26T21:56:52.879Z,65.90
2018-12-26T21:59:58.164Z,86.20
2018-12-26T22:03:03.567Z,81.47
2018-12-26T22:06:08.844Z,85.67
2018-12-26T22:09:14.261Z,85.77
2018-12-26T22:12:19.536Z,89.40
2018-12-26T22:15:24.949Z,100.83
2018-12-26T22:18:30.223Z,81.77
2018-12-26T22:21:35.641Z,84.03
2018-12-26T22:24:42.383Z,86.37
2018-12-26T22:27:47.967Z,93.53
2018-12-26T22:30:53.246Z,89.00
2018-12-26T22:33:58.858Z,89.07
2018-12-26T22:37:04.183Z,83.27
2018-12-26T22:40:09.651Z,93.30
2018-12-26T22:43:15.253Z,88.97
2018-12-26T22:46:20.617Z,74.03
2018-12-26T22:49:25.899Z,78.77
2018-12-26T22:52:31.340Z,83.40
2018-12-26T22:55:36.618Z,67.07
2018-12-26T22:58:42.129Z,83.57
2018-12-26T23:01:47.405Z,69.97
2018-12-26T23:04:52.925Z,61.60
2018-12-26T23:07:58.251Z,65.97
2018-12-26T23:11:03.681Z,70.00
2018-12-26T23:14:08.957Z,63.90
2018-12-26T23:17:14.320Z,65.10
2018-12-26T23:20:19.608Z,71.87
2018-12-26T23:23:25.095Z,65.63
2018-12-26T23:26:30.373Z,70.50
2018-12-26T23:29:35.781Z,68.10
2018-12-26T23:32:46.916Z,76.60
2018-12-26T23:35:48.253Z,62.77
2018-12-26T23:38:53.514Z,81.87
2018-12-26T23:41:58.901Z,77.80
2018-12-26T23:45:04.591Z,66.27
2018-12-26T23:48:10.000Z,73.47
2018-12-26T23:51:15.278Z,75.20
2018-12-26T23:54:20.637Z,68.97
2018-12-26T23:57:25.938Z,65.23
